sensor_id;sensor_type;location;lat;lon;timestamp;temperature;humidity
78297;DHT22;67555;47.660;19.622;2023-02-15T00:01:55;1.00;68.70
78297;DHT22;67555;47.660;19.622;2023-02-15T00:04:22;1.00;68.50
78297;DHT22;67555;47.660;19.622;2023-02-15T00:06:49;1.00;68.40
78297;DHT22;67555;47.660;19.622;2023-02-15T00:09:15;1.00;68.40
78297;DHT22;67555;47.660;19.622;2023-02-15T00:11:41;1.00;68.60
78297;DHT22;67555;47.660;19.622;2023-02-15T00:14:20;1.00;68.60
78297;DHT22;67555;47.660;19.622;2023-02-15T00:16:49;1.00;68.60
78297;DHT22;67555;47.660;19.622;2023-02-15T00:19:16;1.10;68.50
78297;DHT22;67555;47.660;19.622;2023-02-15T00:21:44;1.10;68.30
78297;DHT22;67555;47.660;19.622;2023-02-15T00:24:12;1.00;68.20
78297;DHT22;67555;47.660;19.622;2023-02-15T00:26:39;0.80;68.60
78297;DHT22;67555;47.660;19.622;2023-02-15T00:29:18;0.80;68.70
78297;DHT22;67555;47.660;19.622;2023-02-15T00:31:44;0.80;68.70
78297;DHT22;67555;47.660;19.622;2023-02-15T00:34:16;0.60;68.60
78297;DHT22;67555;47.660;19.622;2023-02-15T00:36:43;0.40;69.00
78297;DHT22;67555;47.660;19.622;2023-02-15T00:39:09;0.30;69.20
78297;DHT22;67555;47.660;19.622;2023-02-15T00:41:35;0.20;69.40
78297;DHT22;67555;47.660;19.622;2023-02-15T00:44:02;0.10;69.60
78297;DHT22;67555;47.660;19.622;2023-02-15T00:46:28;0.10;69.40
78297;DHT22;67555;47.660;19.622;2023-02-15T00:48:53;0.10;69.00
78297;DHT22;67555;47.660;19.622;2023-02-15T00:51:19;0.00;68.70
78297;DHT22;67555;47.660;19.622;2023-02-15T00:53:46;-0.10;68.80
78297;DHT22;67555;47.660;19.622;2023-02-15T00:56:12;-0.20;69.00
78297;DHT22;67555;47.660;19.622;2023-02-15T00:58:38;-0.20;69.10
78297;DHT22;67555;47.660;19.622;2023-02-15T01:01:06;-0.20;68.90
78297;DHT22;67555;47.660;19.622;2023-02-15T01:03:33;-0.30;68.70
78297;DHT22;67555;47.660;19.622;2023-02-15T01:05:59;-0.40;68.90
78297;DHT22;67555;47.660;19.622;2023-02-15T01:08:26;-0.40;68.90
78297;DHT22;67555;47.660;19.622;2023-02-15T01:10:54;-0.40;69.00
78297;DHT22;67555;47.660;19.622;2023-02-15T01:13:20;-0.50;69.00
78297;DHT22;67555;47.660;19.622;2023-02-15T01:15:53;-0.50;69.00
78297;DHT22;67555;47.660;19.622;2023-02-15T01:18:18;-0.50;69.10
78297;DHT22;67555;47.660;19.622;2023-02-15T01:20:45;-0.60;69.30
78297;DHT22;67555;47.660;19.622;2023-02-15T01:23:11;-0.70;69.50
78297;DHT22;67555;47.660;19.622;2023-02-15T01:25:36;-0.70;69.90
78297;DHT22;67555;47.660;19.622;2023-02-15T01:28:03;-0.80;70.10
78297;DHT22;67555;47.660;19.622;2023-02-15T01:30:29;-0.70;70.20
78297;DHT22;67555;47.660;19.622;2023-02-15T01:32:54;-0.70;70.10
78297;DHT22;67555;47.660;19.622;2023-02-15T01:35:20;-0.70;70.20
78297;DHT22;67555;47.660;19.622;2023-02-15T01:37:46;-0.60;70.20
78297;DHT22;67555;47.660;19.622;2023-02-15T01:40:14;-0.60;69.90
78297;DHT22;67555;47.660;19.622;2023-02-15T01:42:41;-0.80;70.10
78297;DHT22;67555;47.660;19.622;2023-02-15T01:45:29;-1.20;70.90
78297;DHT22;67555;47.660;19.622;2023-02-15T01:50:41;-1.50;72.30
78297;DHT22;67555;47.660;19.622;2023-02-15T01:58:26;-1.30;72.60
78297;DHT22;67555;47.660;19.622;2023-02-15T02:00:53;-1.30;72.50
78297;DHT22;67555;47.660;19.622;2023-02-15T02:03:36;-1.10;72.20
78297;DHT22;67555;47.660;19.622;2023-02-15T02:06:04;-1.00;71.90
78297;DHT22;67555;47.660;19.622;2023-02-15T02:08:31;-0.80;71.50
78297;DHT22;67555;47.660;19.622;2023-02-15T02:10:57;-0.70;71.30
78297;DHT22;67555;47.660;19.622;2023-02-15T02:13:22;-0.60;71.20
78297;DHT22;67555;47.660;19.622;2023-02-15T02:16:08;-0.60;71.00
78297;DHT22;67555;47.660;19.622;2023-02-15T02:18:52;-0.70;71.10
78297;DHT22;67555;47.660;19.622;2023-02-15T02:27:30;-1.00;71.50
78297;DHT22;67555;47.660;19.622;2023-02-15T02:35:27;-1.00;71.50
78297;DHT22;67555;47.660;19.622;2023-02-15T02:41:01;-1.10;71.70
78297;DHT22;67555;47.660;19.622;2023-02-15T02:43:40;-1.10;71.70
78297;DHT22;67555;47.660;19.622;2023-02-15T02:49:05;-1.50;72.30
78297;DHT22;67555;47.660;19.622;2023-02-15T02:51:31;-1.50;72.40
78297;DHT22;67555;47.660;19.622;2023-02-15T02:54:00;-1.50;72.50
78297;DHT22;67555;47.660;19.622;2023-02-15T02:56:41;-1.50;72.60
78297;DHT22;67555;47.660;19.622;2023-02-15T02:59:18;-1.50;72.60
78297;DHT22;67555;47.660;19.622;2023-02-15T03:01:51;-1.40;72.50
78297;DHT22;67555;47.660;19.622;2023-02-15T03:04:24;-1.30;72.20
78297;DHT22;67555;47.660;19.622;2023-02-15T03:07:00;-1.30;72.00
78297;DHT22;67555;47.660;19.622;2023-02-15T03:09:30;-1.10;71.70
78297;DHT22;67555;47.660;19.622;2023-02-15T03:12:16;-1.10;71.60
78297;DHT22;67555;47.660;19.622;2023-02-15T03:14:47;-1.10;71.60
78297;DHT22;67555;47.660;19.622;2023-02-15T03:17:14;-1.10;71.70
78297;DHT22;67555;47.660;19.622;2023-02-15T03:19:44;-1.30;72.00
78297;DHT22;67555;47.660;19.622;2023-02-15T03:22:19;-1.30;72.20
78297;DHT22;67555;47.660;19.622;2023-02-15T03:27:23;-1.30;72.30
78297;DHT22;67555;47.660;19.622;2023-02-15T03:29:56;-1.30;72.50
78297;DHT22;67555;47.660;19.622;2023-02-15T03:32:25;-1.20;72.30
78297;DHT22;67555;47.660;19.622;2023-02-15T03:34:52;-1.20;72.10
78297;DHT22;67555;47.660;19.622;2023-02-15T03:40:26;-1.50;72.70
78297;DHT22;67555;47.660;19.622;2023-02-15T03:43:22;-1.50;73.00
78297;DHT22;67555;47.660;19.622;2023-02-15T03:45:52;-1.50;73.10
78297;DHT22;67555;47.660;19.622;2023-02-15T03:48:32;-1.50;73.20
78297;DHT22;67555;47.660;19.622;2023-02-15T03:51:04;-1.50;73.20
78297;DHT22;67555;47.660;19.622;2023-02-15T03:53:50;-1.50;73.00
78297;DHT22;67555;47.660;19.622;2023-02-15T03:56:17;-1.30;72.80
78297;DHT22;67555;47.660;19.622;2023-02-15T03:58:44;-1.20;72.40
78297;DHT22;67555;47.660;19.622;2023-02-15T04:04:15;-1.10;72.00
78297;DHT22;67555;47.660;19.622;2023-02-15T04:06:43;-1.00;71.70
78297;DHT22;67555;47.660;19.622;2023-02-15T04:09:09;-0.90;71.40
78297;DHT22;67555;47.660;19.622;2023-02-15T04:12:04;-0.90;71.20
78297;DHT22;67555;47.660;19.622;2023-02-15T04:14:29;-1.10;71.50
78297;DHT22;67555;47.660;19.622;2023-02-15T04:17:14;-1.10;71.60
78297;DHT22;67555;47.660;19.622;2023-02-15T04:19:40;-1.10;71.90
78297;DHT22;67555;47.660;19.622;2023-02-15T04:22:24;-1.10;71.90
78297;DHT22;67555;47.660;19.622;2023-02-15T04:25:08;-1.10;71.70
78297;DHT22;67555;47.660;19.622;2023-02-15T04:27:38;-1.10;71.60
78297;DHT22;67555;47.660;19.622;2023-02-15T04:30:05;-1.00;71.50
78297;DHT22;67555;47.660;19.622;2023-02-15T04:32:32;-1.00;71.40
78297;DHT22;67555;47.660;19.622;2023-02-15T04:34:58;-0.90;71.10
78297;DHT22;67555;47.660;19.622;2023-02-15T04:37:23;-0.80;70.90
78297;DHT22;67555;47.660;19.622;2023-02-15T04:39:49;-0.90;70.90
78297;DHT22;67555;47.660;19.622;2023-02-15T04:42:15;-0.90;70.90
78297;DHT22;67555;47.660;19.622;2023-02-15T04:44:41;-0.90;71.00
78297;DHT22;67555;47.660;19.622;2023-02-15T04:47:07;-1.10;71.30
78297;DHT22;67555;47.660;19.622;2023-02-15T04:49:32;-1.20;71.60
78297;DHT22;67555;47.660;19.622;2023-02-15T04:51:58;-1.30;71.80
78297;DHT22;67555;47.660;19.622;2023-02-15T04:54:24;-1.30;71.90
78297;DHT22;67555;47.660;19.622;2023-02-15T04:56:50;-1.30;71.90
78297;DHT22;67555;47.660;19.622;2023-02-15T04:59:15;-1.50;71.80
78297;DHT22;67555;47.660;19.622;2023-02-15T05:01:41;-1.50;72.10
78297;DHT22;67555;47.660;19.622;2023-02-15T05:04:07;-1.60;72.30
78297;DHT22;67555;47.660;19.622;2023-02-15T05:06:33;-1.60;72.30
78297;DHT22;67555;47.660;19.622;2023-02-15T05:09:00;-1.70;72.40
78297;DHT22;67555;47.660;19.622;2023-02-15T05:11:26;-1.80;72.60
78297;DHT22;67555;47.660;19.622;2023-02-15T05:13:52;-1.90;73.00
78297;DHT22;67555;47.660;19.622;2023-02-15T05:16:18;-2.10;73.30
78297;DHT22;67555;47.660;19.622;2023-02-15T05:18:44;-2.10;73.50
78297;DHT22;67555;47.660;19.622;2023-02-15T05:21:10;-2.10;73.60
78297;DHT22;67555;47.660;19.622;2023-02-15T05:23:36;-2.10;73.60
78297;DHT22;67555;47.660;19.622;2023-02-15T05:26:04;-2.20;73.70
78297;DHT22;67555;47.660;19.622;2023-02-15T05:28:48;-2.20;73.90
78297;DHT22;67555;47.660;19.622;2023-02-15T05:31:17;-2.20;74.10
78297;DHT22;67555;47.660;19.622;2023-02-15T05:33:47;-2.30;74.40
78297;DHT22;67555;47.660;19.622;2023-02-15T05:36:13;-2.40;74.70
78297;DHT22;67555;47.660;19.622;2023-02-15T05:38:39;-2.40;74.80
78297;DHT22;67555;47.660;19.622;2023-02-15T05:41:06;-2.50;74.90
78297;DHT22;67555;47.660;19.622;2023-02-15T05:43:33;-2.40;75.00
78297;DHT22;67555;47.660;19.622;2023-02-15T05:46:01;-2.50;75.00
78297;DHT22;67555;47.660;19.622;2023-02-15T05:48:28;-2.50;75.00
78297;DHT22;67555;47.660;19.622;2023-02-15T05:53:31;-2.40;74.90
78297;DHT22;67555;47.660;19.622;2023-02-15T05:55:57;-2.30;74.70
78297;DHT22;67555;47.660;19.622;2023-02-15T05:58:28;-2.30;74.70
78297;DHT22;67555;47.660;19.622;2023-02-15T06:00:54;-2.20;74.40
78297;DHT22;67555;47.660;19.622;2023-02-15T06:03:21;-2.30;74.30
78297;DHT22;67555;47.660;19.622;2023-02-15T06:05:47;-2.30;74.40
78297;DHT22;67555;47.660;19.622;2023-02-15T06:08:14;-2.30;74.60
78297;DHT22;67555;47.660;19.622;2023-02-15T06:10:41;-2.30;74.60
78297;DHT22;67555;47.660;19.622;2023-02-15T06:13:06;-2.20;74.40
78297;DHT22;67555;47.660;19.622;2023-02-15T06:15:32;-2.30;74.30
78297;DHT22;67555;47.660;19.622;2023-02-15T06:17:59;-2.30;74.50
78297;DHT22;67555;47.660;19.622;2023-02-15T06:20:25;-2.30;74.50
78297;DHT22;67555;47.660;19.622;2023-02-15T06:22:51;-2.20;74.40
78297;DHT22;67555;47.660;19.622;2023-02-15T06:25:16;-2.10;74.30
78297;DHT22;67555;47.660;19.622;2023-02-15T06:27:42;-2.10;74.00
78297;DHT22;67555;47.660;19.622;2023-02-15T06:30:10;-2.00;73.70
78297;DHT22;67555;47.660;19.622;2023-02-15T06:32:36;-1.90;73.40
78297;DHT22;67555;47.660;19.622;2023-02-15T06:35:02;-1.80;73.30
78297;DHT22;67555;47.660;19.622;2023-02-15T06:37:28;-1.70;73.30
78297;DHT22;67555;47.660;19.622;2023-02-15T06:39:54;-1.70;73.20
78297;DHT22;67555;47.660;19.622;2023-02-15T06:42:21;-1.60;73.10
78297;DHT22;67555;47.660;19.622;2023-02-15T06:44:47;-1.60;73.30
78297;DHT22;67555;47.660;19.622;2023-02-15T06:47:15;-1.60;73.20
78297;DHT22;67555;47.660;19.622;2023-02-15T06:49:42;-1.70;73.60
78297;DHT22;67555;47.660;19.622;2023-02-15T06:52:07;-1.70;73.70
78297;DHT22;67555;47.660;19.622;2023-02-15T06:54:33;-1.60;73.90
78297;DHT22;67555;47.660;19.622;2023-02-15T06:57:00;-1.60;74.00
78297;DHT22;67555;47.660;19.622;2023-02-15T06:59:27;-1.50;74.00
78297;DHT22;67555;47.660;19.622;2023-02-15T07:01:54;-1.30;73.80
78297;DHT22;67555;47.660;19.622;2023-02-15T07:04:19;-1.20;73.70
78297;DHT22;67555;47.660;19.622;2023-02-15T07:06:45;-1.10;73.50
78297;DHT22;67555;47.660;19.622;2023-02-15T07:09:11;-1.10;73.60
78297;DHT22;67555;47.660;19.622;2023-02-15T07:11:38;-1.10;74.00
78297;DHT22;67555;47.660;19.622;2023-02-15T07:14:22;-1.10;74.30
78297;DHT22;67555;47.660;19.622;2023-02-15T07:16:48;-0.90;74.20
78297;DHT22;67555;47.660;19.622;2023-02-15T07:19:14;-0.70;74.20
78297;DHT22;67555;47.660;19.622;2023-02-15T07:21:40;-0.60;73.90
78297;DHT22;67555;47.660;19.622;2023-02-15T07:24:05;-0.40;73.80
78297;DHT22;67555;47.660;19.622;2023-02-15T07:26:32;-0.30;73.70
78297;DHT22;67555;47.660;19.622;2023-02-15T07:28:58;-0.10;73.60
78297;DHT22;67555;47.660;19.622;2023-02-15T07:31:23;-0.10;73.60
78297;DHT22;67555;47.660;19.622;2023-02-15T07:33:49;0.00;73.70
78297;DHT22;67555;47.660;19.622;2023-02-15T07:36:15;0.00;74.00
78297;DHT22;67555;47.660;19.622;2023-02-15T07:38:41;0.00;74.20
78297;DHT22;67555;47.660;19.622;2023-02-15T07:41:10;0.00;74.30
78297;DHT22;67555;47.660;19.622;2023-02-15T07:43:39;0.20;74.30
78297;DHT22;67555;47.660;19.622;2023-02-15T07:46:09;0.30;74.40
78297;DHT22;67555;47.660;19.622;2023-02-15T07:48:36;0.40;74.60
78297;DHT22;67555;47.660;19.622;2023-02-15T07:51:04;0.50;74.70
78297;DHT22;67555;47.660;19.622;2023-02-15T07:53:32;0.60;74.60
78297;DHT22;67555;47.660;19.622;2023-02-15T07:56:08;0.60;74.90
78297;DHT22;67555;47.660;19.622;2023-02-15T07:58:34;0.60;75.20
78297;DHT22;67555;47.660;19.622;2023-02-15T08:01:32;0.80;75.30
78297;DHT22;67555;47.660;19.622;2023-02-15T08:03:58;0.90;75.40
78297;DHT22;67555;47.660;19.622;2023-02-15T08:06:27;1.00;75.40
78297;DHT22;67555;47.660;19.622;2023-02-15T08:08:54;1.20;75.30
78297;DHT22;67555;47.660;19.622;2023-02-15T08:11:25;1.40;75.30
78297;DHT22;67555;47.660;19.622;2023-02-15T08:14:09;1.50;75.20
78297;DHT22;67555;47.660;19.622;2023-02-15T08:16:42;1.60;75.10
78297;DHT22;67555;47.660;19.622;2023-02-15T08:21:43;2.00;75.00
78297;DHT22;67555;47.660;19.622;2023-02-15T08:24:12;2.10;74.90
78297;DHT22;67555;47.660;19.622;2023-02-15T08:26:38;2.30;74.70
78297;DHT22;67555;47.660;19.622;2023-02-15T08:29:05;2.50;74.30
78297;DHT22;67555;47.660;19.622;2023-02-15T08:31:32;2.70;74.10
78297;DHT22;67555;47.660;19.622;2023-02-15T08:33:58;2.80;74.00
78297;DHT22;67555;47.660;19.622;2023-02-15T08:36:27;3.00;73.70
78297;DHT22;67555;47.660;19.622;2023-02-15T08:38:54;3.30;73.20
78297;DHT22;67555;47.660;19.622;2023-02-15T08:41:25;3.50;72.90
78297;DHT22;67555;47.660;19.622;2023-02-15T08:43:54;3.50;72.70
78297;DHT22;67555;47.660;19.622;2023-02-15T08:46:20;3.60;72.60
78297;DHT22;67555;47.660;19.622;2023-02-15T08:48:46;3.70;72.50
78297;DHT22;67555;47.660;19.622;2023-02-15T08:51:16;3.90;72.20
78297;DHT22;67555;47.660;19.622;2023-02-15T08:53:46;4.00;71.80
78297;DHT22;67555;47.660;19.622;2023-02-15T08:56:19;4.10;71.60
78297;DHT22;67555;47.660;19.622;2023-02-15T08:58:45;4.30;71.50
78297;DHT22;67555;47.660;19.622;2023-02-15T09:01:13;4.50;71.20
78297;DHT22;67555;47.660;19.622;2023-02-15T09:03:40;4.70;70.70
78297;DHT22;67555;47.660;19.622;2023-02-15T09:06:06;4.90;70.30
78297;DHT22;67555;47.660;19.622;2023-02-15T09:08:32;5.00;69.80
78297;DHT22;67555;47.660;19.622;2023-02-15T09:11:09;5.10;69.70
78297;DHT22;67555;47.660;19.622;2023-02-15T09:13:37;5.30;69.30
78297;DHT22;67555;47.660;19.622;2023-02-15T09:16:06;5.50;69.00
78297;DHT22;67555;47.660;19.622;2023-02-15T09:18:34;5.60;68.80
78297;DHT22;67555;47.660;19.622;2023-02-15T09:21:12;5.80;68.40
78297;DHT22;67555;47.660;19.622;2023-02-15T09:23:43;6.00;68.00
78297;DHT22;67555;47.660;19.622;2023-02-15T09:26:14;6.10;67.70
78297;DHT22;67555;47.660;19.622;2023-02-15T09:28:40;6.30;67.50
78297;DHT22;67555;47.660;19.622;2023-02-15T09:31:14;6.40;67.30
78297;DHT22;67555;47.660;19.622;2023-02-15T09:33:42;6.50;67.00
78297;DHT22;67555;47.660;19.622;2023-02-15T09:36:23;6.50;66.80
78297;DHT22;67555;47.660;19.622;2023-02-15T09:39:08;6.60;66.70
78297;DHT22;67555;47.660;19.622;2023-02-15T10:06:38;7.80;64.20
78297;DHT22;67555;47.660;19.622;2023-02-15T10:27:32;8.50;62.30
78297;DHT22;67555;47.660;19.622;2023-02-15T10:35:25;8.70;61.70
78297;DHT22;67555;47.660;19.622;2023-02-15T10:38:14;8.80;61.50
78297;DHT22;67555;47.660;19.622;2023-02-15T10:49:50;9.10;60.60
78297;DHT22;67555;47.660;19.622;2023-02-15T10:55:09;9.40;60.20
78297;DHT22;67555;47.660;19.622;2023-02-15T11:07:59;9.40;59.00
78297;DHT22;67555;47.660;19.622;2023-02-15T11:10:47;9.40;58.90
78297;DHT22;67555;47.660;19.622;2023-02-15T11:13:17;9.40;59.00
78297;DHT22;67555;47.660;19.622;2023-02-15T11:15:59;9.40;58.80
78297;DHT22;67555;47.660;19.622;2023-02-15T11:19:11;9.50;58.50
78297;DHT22;67555;47.660;19.622;2023-02-15T11:21:20;9.60;58.50
78297;DHT22;67555;47.660;19.622;2023-02-15T11:23:46;9.60;58.30
78297;DHT22;67555;47.660;19.622;2023-02-15T11:29:36;9.80;58.00
78297;DHT22;67555;47.660;19.622;2023-02-15T11:34:55;10.00;57.40
78297;DHT22;67555;47.660;19.622;2023-02-15T11:37:30;10.10;57.10
78297;DHT22;67555;47.660;19.622;2023-02-15T11:39:57;10.20;56.80
78297;DHT22;67555;47.660;19.622;2023-02-15T11:42:24;10.20;56.80
78297;DHT22;67555;47.660;19.622;2023-02-15T11:47:44;10.10;56.40
78297;DHT22;67555;47.660;19.622;2023-02-15T11:50:14;10.20;56.60
78297;DHT22;67555;47.660;19.622;2023-02-15T11:52:42;10.30;56.50
78297;DHT22;67555;47.660;19.622;2023-02-15T11:55:13;10.40;56.20
78297;DHT22;67555;47.660;19.622;2023-02-15T11:57:43;10.50;55.90
78297;DHT22;67555;47.660;19.622;2023-02-15T12:00:14;10.60;56.00
78297;DHT22;67555;47.660;19.622;2023-02-15T12:02:45;10.70;55.80
78297;DHT22;67555;47.660;19.622;2023-02-15T12:05:17;10.80;55.40
78297;DHT22;67555;47.660;19.622;2023-02-15T12:08:23;10.80;55.40
78297;DHT22;67555;47.660;19.622;2023-02-15T12:13:23;11.00;55.00
78297;DHT22;67555;47.660;19.622;2023-02-15T12:15:59;11.00;55.00
78297;DHT22;67555;47.660;19.622;2023-02-15T12:18:41;11.10;54.80
78297;DHT22;67555;47.660;19.622;2023-02-15T12:21:14;11.10;54.70
78297;DHT22;67555;47.660;19.622;2023-02-15T12:23:55;11.20;54.60
78297;DHT22;67555;47.660;19.622;2023-02-15T12:26:33;11.30;54.50
78297;DHT22;67555;47.660;19.622;2023-02-15T12:29:06;11.40;54.40
78297;DHT22;67555;47.660;19.622;2023-02-15T12:31:51;11.50;54.40
78297;DHT22;67555;47.660;19.622;2023-02-15T12:34:32;11.60;54.30
78297;DHT22;67555;47.660;19.622;2023-02-15T12:37:15;11.90;53.90
78297;DHT22;67555;47.660;19.622;2023-02-15T12:39:57;12.10;53.50
78297;DHT22;67555;47.660;19.622;2023-02-15T12:42:25;12.50;53.00
78297;DHT22;67555;47.660;19.622;2023-02-15T12:45:26;12.70;52.40
78297;DHT22;67555;47.660;19.622;2023-02-15T12:48:18;13.00;51.70
78297;DHT22;67555;47.660;19.622;2023-02-15T12:50:50;13.30;51.40
78297;DHT22;67555;47.660;19.622;2023-02-15T12:53:22;13.50;50.80
78297;DHT22;67555;47.660;19.622;2023-02-15T12:55:56;13.70;50.30
78297;DHT22;67555;47.660;19.622;2023-02-15T12:58:24;13.90;49.80
78297;DHT22;67555;47.660;19.622;2023-02-15T13:03:53;14.20;48.80
78297;DHT22;67555;47.660;19.622;2023-02-15T13:06:21;14.30;48.50
78297;DHT22;67555;47.660;19.622;2023-02-15T13:08:52;14.30;47.70
78297;DHT22;67555;47.660;19.622;2023-02-15T13:11:39;14.10;48.00
78297;DHT22;67555;47.660;19.622;2023-02-15T13:14:31;14.30;47.70
78297;DHT22;67555;47.660;19.622;2023-02-15T13:17:00;14.50;47.50
78297;DHT22;67555;47.660;19.622;2023-02-15T13:19:33;14.50;47.20
78297;DHT22;67555;47.660;19.622;2023-02-15T13:22:06;14.70;47.20
78297;DHT22;67555;47.660;19.622;2023-02-15T13:24:40;14.90;46.80
78297;DHT22;67555;47.660;19.622;2023-02-15T13:27:17;14.80;46.10
78297;DHT22;67555;47.660;19.622;2023-02-15T13:29:50;14.80;46.20
78297;DHT22;67555;47.660;19.622;2023-02-15T13:32:38;15.00;46.10
78297;DHT22;67555;47.660;19.622;2023-02-15T13:35:14;15.30;45.70
78297;DHT22;67555;47.660;19.622;2023-02-15T13:43:20;15.40;45.30
78297;DHT22;67555;47.660;19.622;2023-02-15T13:46:18;15.30;45.20
78297;DHT22;67555;47.660;19.622;2023-02-15T14:00:59;13.90;46.50
78297;DHT22;67555;47.660;19.622;2023-02-15T14:03:41;13.60;46.60
78297;DHT22;67555;47.660;19.622;2023-02-15T14:14:39;13.10;47.30
78297;DHT22;67555;47.660;19.622;2023-02-15T14:20:03;12.90;47.60
78297;DHT22;67555;47.660;19.622;2023-02-15T14:22:40;12.80;47.60
78297;DHT22;67555;47.660;19.622;2023-02-15T14:30:36;12.60;47.70
78297;DHT22;67555;47.660;19.622;2023-02-15T14:33:35;12.50;47.60
78297;DHT22;67555;47.660;19.622;2023-02-15T14:36:06;12.50;47.70
78297;DHT22;67555;47.660;19.622;2023-02-15T14:38:47;12.30;48.00
78297;DHT22;67555;47.660;19.622;2023-02-15T14:44:17;12.10;48.30
78297;DHT22;67555;47.660;19.622;2023-02-15T14:47:21;12.10;48.40
78297;DHT22;67555;47.660;19.622;2023-02-15T14:49:48;12.00;48.40
78297;DHT22;67555;47.660;19.622;2023-02-15T14:52:14;12.00;48.50
78297;DHT22;67555;47.660;19.622;2023-02-15T14:59:38;11.90;48.60
78297;DHT22;67555;47.660;19.622;2023-02-15T15:04:44;11.80;48.80
78297;DHT22;67555;47.660;19.622;2023-02-15T15:07:24;11.70;48.80
78297;DHT22;67555;47.660;19.622;2023-02-15T15:15:32;11.50;49.10
78297;DHT22;67555;47.660;19.622;2023-02-15T15:17:58;11.40;49.20
78297;DHT22;67555;47.660;19.622;2023-02-15T15:20:49;11.20;49.20
78297;DHT22;67555;47.660;19.622;2023-02-15T15:25:45;11.00;49.50
78297;DHT22;67555;47.660;19.622;2023-02-15T15:30:56;10.70;49.80
78297;DHT22;67555;47.660;19.622;2023-02-15T15:33:43;10.60;49.90
78297;DHT22;67555;47.660;19.622;2023-02-15T15:41:47;10.20;50.30
78297;DHT22;67555;47.660;19.622;2023-02-15T15:47:21;10.00;50.60
78297;DHT22;67555;47.660;19.622;2023-02-15T15:49:55;9.80;50.70
78297;DHT22;67555;47.660;19.622;2023-02-15T15:52:22;9.60;50.80
78297;DHT22;67555;47.660;19.622;2023-02-15T15:54:57;9.50;50.90
78297;DHT22;67555;47.660;19.622;2023-02-15T15:57:37;9.40;51.10
78297;DHT22;67555;47.660;19.622;2023-02-15T16:00:04;9.20;51.20
78297;DHT22;67555;47.660;19.622;2023-02-15T16:02:54;9.00;51.40
78297;DHT22;67555;47.660;19.622;2023-02-15T16:05:21;8.90;51.50
78297;DHT22;67555;47.660;19.622;2023-02-15T16:07:48;8.80;51.70
78297;DHT22;67555;47.660;19.622;2023-02-15T16:10:24;8.60;51.80
78297;DHT22;67555;47.660;19.622;2023-02-15T16:12:51;8.40;52.10
78297;DHT22;67555;47.660;19.622;2023-02-15T16:15:24;8.30;52.20
78297;DHT22;67555;47.660;19.622;2023-02-15T16:17:54;8.20;52.40
78297;DHT22;67555;47.660;19.622;2023-02-15T16:20:35;8.10;52.60
78297;DHT22;67555;47.660;19.622;2023-02-15T16:25:53;7.90;52.90
78297;DHT22;67555;47.660;19.622;2023-02-15T16:28:22;7.80;53.00
78297;DHT22;67555;47.660;19.622;2023-02-15T16:31:10;7.70;53.20
78297;DHT22;67555;47.660;19.622;2023-02-15T16:33:40;7.60;53.30
78297;DHT22;67555;47.660;19.622;2023-02-15T16:36:11;7.50;53.50
78297;DHT22;67555;47.660;19.622;2023-02-15T16:41:32;7.40;53.80
78297;DHT22;67555;47.660;19.622;2023-02-15T16:44:02;7.20;54.10
78297;DHT22;67555;47.660;19.622;2023-02-15T16:46:36;7.20;54.30
78297;DHT22;67555;47.660;19.622;2023-02-15T16:49:27;7.20;54.40
78297;DHT22;67555;47.660;19.622;2023-02-15T16:52:05;7.00;54.60
78297;DHT22;67555;47.660;19.622;2023-02-15T16:54:33;7.00;54.80
78297;DHT22;67555;47.660;19.622;2023-02-15T16:57:02;7.00;55.00
78297;DHT22;67555;47.660;19.622;2023-02-15T16:59:40;6.90;55.10
78297;DHT22;67555;47.660;19.622;2023-02-15T17:02:30;6.90;55.20
78297;DHT22;67555;47.660;19.622;2023-02-15T17:07:48;6.80;55.40
78297;DHT22;67555;47.660;19.622;2023-02-15T17:11:01;6.70;55.50
78297;DHT22;67555;47.660;19.622;2023-02-15T17:13:29;6.70;55.60
78297;DHT22;67555;47.660;19.622;2023-02-15T17:18:55;6.60;55.80
78297;DHT22;67555;47.660;19.622;2023-02-15T17:21:32;6.60;55.90
78297;DHT22;67555;47.660;19.622;2023-02-15T17:24:00;6.50;56.00
78297;DHT22;67555;47.660;19.622;2023-02-15T17:26:38;6.40;56.10
78297;DHT22;67555;47.660;19.622;2023-02-15T17:29:22;6.40;56.20
78297;DHT22;67555;47.660;19.622;2023-02-15T17:31:50;6.40;56.20
78297;DHT22;67555;47.660;19.622;2023-02-15T17:34:49;6.30;56.20
78297;DHT22;67555;47.660;19.622;2023-02-15T17:42:40;6.10;56.50
78297;DHT22;67555;47.660;19.622;2023-02-15T17:45:07;5.90;56.70
78297;DHT22;67555;47.660;19.622;2023-02-15T17:47:33;5.60;57.10
78297;DHT22;67555;47.660;19.622;2023-02-15T17:50:03;5.30;57.80
78297;DHT22;67555;47.660;19.622;2023-02-15T17:52:30;5.00;58.70
78297;DHT22;67555;47.660;19.622;2023-02-15T17:54:58;4.90;59.10
78297;DHT22;67555;47.660;19.622;2023-02-15T17:57:42;4.90;59.20
78297;DHT22;67555;47.660;19.622;2023-02-15T18:00:13;4.90;59.10
78297;DHT22;67555;47.660;19.622;2023-02-15T18:02:58;5.00;59.00
78297;DHT22;67555;47.660;19.622;2023-02-15T18:05:43;5.00;58.90
78297;DHT22;67555;47.660;19.622;2023-02-15T18:08:27;5.00;58.80
78297;DHT22;67555;47.660;19.622;2023-02-15T18:11:12;5.00;58.90
78297;DHT22;67555;47.660;19.622;2023-02-15T18:13:57;5.00;59.00
78297;DHT22;67555;47.660;19.622;2023-02-15T18:16:27;4.80;59.10
78297;DHT22;67555;47.660;19.622;2023-02-15T18:18:54;4.70;59.40
78297;DHT22;67555;47.660;19.622;2023-02-15T18:21:23;4.70;59.40
78297;DHT22;67555;47.660;19.622;2023-02-15T18:23:49;4.70;59.50
78297;DHT22;67555;47.660;19.622;2023-02-15T18:26:19;4.60;59.60
78297;DHT22;67555;47.660;19.622;2023-02-15T18:28:46;4.50;59.70
78297;DHT22;67555;47.660;19.622;2023-02-15T18:31:14;4.40;60.00
78297;DHT22;67555;47.660;19.622;2023-02-15T18:33:56;4.50;60.00
78297;DHT22;67555;47.660;19.622;2023-02-15T18:36:27;4.40;60.10
78297;DHT22;67555;47.660;19.622;2023-02-15T18:38:55;4.30;60.50
78297;DHT22;67555;47.660;19.622;2023-02-15T18:41:22;4.20;60.70
78297;DHT22;67555;47.660;19.622;2023-02-15T18:43:48;4.10;61.00
78297;DHT22;67555;47.660;19.622;2023-02-15T18:46:16;4.10;61.20
78297;DHT22;67555;47.660;19.622;2023-02-15T18:48:44;4.00;61.20
78297;DHT22;67555;47.660;19.622;2023-02-15T18:51:17;4.00;61.40
78297;DHT22;67555;47.660;19.622;2023-02-15T18:53:47;4.00;61.40
78297;DHT22;67555;47.660;19.622;2023-02-15T18:56:18;4.00;61.40
78297;DHT22;67555;47.660;19.622;2023-02-15T18:58:45;4.00;61.30
78297;DHT22;67555;47.660;19.622;2023-02-15T19:01:16;4.00;61.30
78297;DHT22;67555;47.660;19.622;2023-02-15T19:03:46;4.00;61.20
78297;DHT22;67555;47.660;19.622;2023-02-15T19:06:14;4.00;61.20
78297;DHT22;67555;47.660;19.622;2023-02-15T19:08:42;4.00;61.00
78297;DHT22;67555;47.660;19.622;2023-02-15T19:11:15;4.00;60.90
78297;DHT22;67555;47.660;19.622;2023-02-15T19:13:44;4.00;60.90
78297;DHT22;67555;47.660;19.622;2023-02-15T19:16:34;3.90;60.90